createdAt,value
2023-02-02T00:01:01.745Z,5.50
2023-02-02T00:04:05.335Z,5.40
2023-02-02T00:07:10.237Z,5.30
2023-02-02T00:10:13.134Z,5.50
2023-02-02T00:13:16.377Z,5.40
2023-02-02T00:16:38.763Z,5.50
2023-02-02T00:19:41.750Z,5.40
2023-02-02T00:22:46.172Z,5.50
2023-02-02T00:25:52.195Z,5.60
2023-02-02T00:28:55.122Z,5.50
2023-02-02T00:31:58.351Z,5.50
2023-02-02T00:35:01.253Z,5.50
2023-02-02T00:38:05.926Z,5.30
2023-02-02T00:41:08.867Z,5.50
2023-02-02T00:44:29.491Z,5.60
2023-02-02T00:47:32.356Z,5.40
2023-02-02T00:50:35.205Z,5.30
2023-02-02T00:53:39.483Z,5.30
2023-02-02T00:56:43.037Z,5.30
2023-02-02T00:59:45.873Z,5.20
2023-02-02T01:02:48.746Z,5.10
2023-02-02T01:05:52.060Z,5.10
2023-02-02T01:08:56.371Z,5.20
2023-02-02T01:11:59.488Z,5.00
2023-02-02T01:15:02.515Z,5.10
2023-02-02T01:18:05.490Z,5.20
2023-02-02T01:21:11.117Z,5.10
2023-02-02T01:24:15.396Z,5.00
2023-02-02T01:27:19.046Z,5.20
2023-02-02T01:30:22.092Z,5.30
2023-02-02T01:33:26.039Z,5.30
2023-02-02T01:36:29.002Z,5.40
2023-02-02T01:39:34.338Z,5.40
2023-02-02T01:42:37.267Z,5.20
2023-02-02T01:45:40.131Z,5.40
2023-02-02T01:48:46.543Z,5.20
2023-02-02T01:51:52.571Z,5.30
2023-02-02T01:55:01.059Z,5.20
2023-02-02T01:58:06.816Z,5.30
2023-02-02T02:01:10.231Z,5.30
2023-02-02T02:04:13.196Z,5.30
2023-02-02T02:07:16.101Z,5.30
2023-02-02T02:10:20.366Z,5.20
2023-02-02T02:13:45.638Z,5.10
2023-02-02T02:16:58.627Z,5.10
2023-02-02T02:20:53.436Z,5.20
2023-02-02T02:25:00.142Z,5.10
2023-02-02T02:28:35.496Z,5.20
2023-02-02T02:32:03.235Z,5.20
2023-02-02T02:35:13.584Z,5.30
2023-02-02T02:38:26.248Z,5.20
2023-02-02T02:41:33.452Z,5.30
2023-02-02T02:44:37.614Z,5.20
2023-02-02T02:47:43.260Z,5.20
2023-02-02T02:50:46.393Z,5.40
2023-02-02T02:53:49.483Z,5.20
2023-02-02T02:57:14.502Z,5.30
2023-02-02T03:00:27.934Z,5.20
2023-02-02T03:04:05.578Z,5.30
2023-02-02T03:07:13.666Z,5.40
2023-02-02T03:10:20.389Z,5.30
2023-02-02T03:13:23.512Z,5.20
2023-02-02T03:16:26.418Z,5.10
2023-02-02T03:19:30.630Z,5.20
2023-02-02T03:22:33.556Z,5.30
2023-02-02T03:25:36.398Z,5.30
2023-02-02T03:28:39.486Z,5.20
2023-02-02T03:31:42.378Z,5.30
2023-02-02T03:34:46.692Z,5.10
2023-02-02T03:37:49.881Z,4.70
2023-02-02T03:40:53.086Z,5.00
2023-02-02T03:43:55.923Z,4.90
2023-02-02T03:46:58.764Z,5.00
2023-02-02T03:50:02.994Z,5.00
2023-02-02T03:53:06.010Z,5.10
2023-02-02T03:56:08.906Z,5.00
2023-02-02T03:59:11.762Z,5.00
2023-02-02T04:02:14.640Z,5.10
2023-02-02T04:05:18.821Z,5.10
2023-02-02T04:08:21.809Z,5.00
2023-02-02T04:11:24.701Z,5.10
2023-02-02T04:14:27.606Z,5.10
2023-02-02T04:17:30.523Z,5.10
2023-02-02T04:20:34.914Z,5.10
2023-02-02T04:23:37.883Z,5.30
2023-02-02T04:26:40.777Z,5.20
2023-02-02T04:29:43.767Z,5.30
2023-02-02T04:32:47.005Z,5.30
2023-02-02T04:35:51.468Z,5.20
2023-02-02T04:38:55.896Z,5.30
2023-02-02T04:41:58.785Z,5.20
2023-02-02T04:45:01.751Z,5.10
2023-02-02T04:48:05.330Z,5.10
2023-02-02T04:51:11.963Z,5.20
2023-02-02T04:54:14.878Z,5.10
2023-02-02T04:57:17.859Z,5.20
2023-02-02T05:00:21.304Z,5.30
2023-02-02T05:03:24.428Z,5.50
2023-02-02T05:06:28.695Z,5.40
2023-02-02T05:09:31.535Z,5.50
2023-02-02T05:12:34.401Z,5.50
2023-02-02T05:15:37.311Z,5.60
2023-02-02T05:18:40.154Z,5.60
2023-02-02T05:21:45.695Z,5.40
2023-02-02T05:24:48.550Z,5.40
2023-02-02T05:27:51.403Z,5.40
2023-02-02T05:30:54.601Z,5.50
2023-02-02T05:33:57.649Z,5.30
2023-02-02T05:37:01.834Z,5.30
2023-02-02T05:40:05.196Z,5.50
2023-02-02T05:43:08.063Z,5.60
2023-02-02T05:46:11.001Z,5.50
2023-02-02T05:49:16.703Z,5.40
2023-02-02T05:52:23.308Z,5.30
2023-02-02T05:55:26.556Z,5.30
2023-02-02T05:58:29.581Z,5.40
2023-02-02T06:01:32.468Z,5.40
2023-02-02T06:04:35.318Z,5.40
2023-02-02T06:07:39.496Z,5.50
2023-02-02T06:10:42.701Z,5.40
2023-02-02T06:13:46.162Z,5.40
2023-02-02T06:16:49.129Z,5.50
2023-02-02T06:19:51.972Z,5.60
2023-02-02T06:22:56.297Z,5.50
2023-02-02T06:25:59.281Z,5.30
2023-02-02T06:29:02.247Z,5.50
2023-02-02T06:32:05.575Z,5.50
2023-02-02T06:35:09.739Z,5.50
2023-02-02T06:38:13.911Z,5.50
2023-02-02T06:41:16.755Z,5.50
2023-02-02T06:44:20.910Z,5.50
2023-02-02T06:47:25.363Z,5.40
2023-02-02T06:50:29.423Z,5.50
2023-02-02T06:53:34.173Z,5.50
2023-02-02T06:56:37.507Z,5.50
2023-02-02T06:59:41.275Z,5.40
2023-02-02T07:02:46.985Z,5.40
2023-02-02T07:05:50.492Z,5.40
2023-02-02T07:09:02.356Z,5.50
2023-02-02T07:12:06.259Z,5.50
2023-02-02T07:15:10.260Z,5.30
2023-02-02T07:18:13.548Z,5.40
2023-02-02T07:21:18.932Z,5.40
2023-02-02T07:24:23.142Z,5.50
2023-02-02T07:27:26.073Z,5.50
2023-02-02T07:30:29.912Z,5.40
2023-02-02T07:33:32.841Z,5.40
2023-02-02T07:36:36.040Z,5.40
2023-02-02T07:39:40.576Z,5.50
2023-02-02T07:42:46.161Z,5.60
2023-02-02T07:45:49.199Z,5.50
2023-02-02T07:48:54.756Z,5.40
2023-02-02T07:51:57.831Z,5.30
2023-02-02T07:55:13.893Z,5.40
2023-02-02T07:58:17.708Z,5.40
2023-02-02T08:01:22.876Z,5.50
2023-02-02T08:04:26.029Z,5.50
2023-02-02T08:07:29.150Z,5.60
2023-02-02T08:10:33.360Z,5.60
2023-02-02T08:13:36.193Z,5.60
2023-02-02T08:16:39.066Z,5.50
2023-02-02T08:19:41.938Z,5.70
2023-02-02T08:22:44.774Z,5.60
2023-02-02T08:25:48.964Z,5.60
2023-02-02T08:28:55.220Z,5.60
2023-02-02T08:31:58.807Z,5.60
2023-02-02T08:35:01.694Z,5.40
2023-02-02T08:38:05.371Z,5.40
2023-02-02T08:41:11.088Z,5.50
2023-02-02T08:44:16.859Z,5.70
2023-02-02T08:47:19.700Z,5.70
2023-02-02T08:50:22.828Z,5.50
2023-02-02T08:53:26.881Z,5.60
2023-02-02T08:56:31.276Z,5.70
2023-02-02T08:59:34.114Z,5.50
2023-02-02T09:02:36.984Z,5.70
2023-02-02T09:05:39.884Z,5.70
2023-02-02T09:08:43.259Z,5.80
2023-02-02T09:11:47.561Z,5.90
2023-02-02T09:14:50.398Z,5.60
2023-02-02T09:17:54.094Z,5.60
2023-02-02T09:21:00.202Z,5.50
2023-02-02T09:24:06.613Z,5.40
2023-02-02T09:27:10.832Z,5.50
2023-02-02T09:30:14.605Z,5.70
2023-02-02T09:33:17.498Z,5.40
2023-02-02T09:36:22.754Z,5.50
2023-02-02T09:39:25.777Z,5.40
2023-02-02T09:42:45.573Z,5.50
2023-02-02T09:45:55.963Z,5.40
2023-02-02T09:49:03.017Z,5.50
2023-02-02T09:52:14.297Z,5.70
2023-02-02T09:55:23.130Z,5.70
2023-02-02T09:58:32.155Z,5.40
2023-02-02T10:01:37.637Z,5.60
2023-02-02T10:04:42.862Z,5.70
2023-02-02T10:07:49.274Z,5.70
2023-02-02T10:10:52.865Z,5.80
2023-02-02T10:14:02.515Z,5.70
2023-02-02T10:17:27.075Z,5.70
2023-02-02T10:20:39.437Z,5.90
2023-02-02T10:23:44.392Z,5.80
2023-02-02T10:26:49.474Z,5.70
2023-02-02T10:29:59.610Z,5.60
2023-02-02T10:33:07.407Z,5.70
2023-02-02T10:36:21.186Z,5.80
2023-02-02T10:39:33.825Z,5.80
2023-02-02T10:42:45.565Z,5.70
2023-02-02T10:45:52.439Z,5.80
2023-02-02T10:49:09.642Z,5.80
2023-02-02T10:52:17.343Z,5.60
2023-02-02T10:55:28.706Z,5.60
2023-02-02T10:58:36.816Z,5.60
2023-02-02T11:01:41.035Z,5.70
2023-02-02T11:05:01.586Z,5.80
2023-02-02T11:08:13.940Z,5.90
2023-02-02T11:11:22.070Z,6.00
2023-02-02T11:14:45.084Z,6.10
2023-02-02T11:17:50.265Z,5.90
2023-02-02T11:20:53.301Z,5.90
2023-02-02T11:24:00.592Z,5.90
2023-02-02T11:27:06.071Z,6.00
2023-02-02T11:30:23.291Z,6.10
2023-02-02T11:33:33.498Z,6.10
2023-02-02T11:36:36.415Z,6.10
2023-02-02T11:39:39.518Z,6.20
2023-02-02T11:42:47.550Z,6.10
2023-02-02T11:45:59.289Z,6.10
2023-02-02T11:49:08.524Z,6.00
2023-02-02T11:52:19.036Z,5.90
2023-02-02T11:55:28.198Z,5.60
2023-02-02T11:58:48.937Z,5.90
2023-02-02T12:01:51.827Z,5.90
2023-02-02T12:05:14.443Z,5.90
2023-02-02T12:08:17.361Z,6.00
2023-02-02T12:11:34.813Z,5.80
2023-02-02T12:14:46.774Z,5.90
2023-02-02T12:17:49.818Z,5.90
2023-02-02T12:21:00.272Z,5.70
2023-02-02T12:24:18.846Z,5.60
2023-02-02T12:27:32.000Z,5.60
2023-02-02T12:30:44.550Z,5.60
2023-02-02T12:33:55.000Z,5.70
2023-02-02T12:37:07.594Z,5.80
2023-02-02T12:40:28.501Z,5.70
2023-02-02T12:43:40.640Z,5.60
2023-02-02T12:46:57.927Z,5.70
2023-02-02T12:50:15.666Z,5.60
2023-02-02T12:53:36.530Z,5.50
2023-02-02T12:56:45.053Z,5.50
2023-02-02T13:00:02.026Z,5.50
2023-02-02T13:03:18.955Z,5.40
2023-02-02T13:06:44.382Z,5.70
2023-02-02T13:09:59.026Z,5.60
2023-02-02T13:13:09.010Z,5.60
2023-02-02T13:16:14.255Z,5.50
2023-02-02T13:19:27.712Z,5.60
2023-02-02T13:22:35.757Z,5.50
2023-02-02T13:25:45.550Z,5.40
2023-02-02T13:28:53.543Z,5.50
2023-02-02T13:32:02.344Z,5.40
2023-02-02T13:35:15.671Z,5.30
2023-02-02T13:38:23.018Z,5.20
2023-02-02T13:41:28.780Z,5.30
2023-02-02T13:44:35.373Z,5.30
2023-02-02T13:47:42.970Z,5.30
2023-02-02T13:50:59.939Z,5.20
2023-02-02T13:54:32.191Z,5.10
2023-02-02T14:01:13.320Z,5.10
2023-02-02T14:04:23.171Z,5.30
2023-02-02T14:07:37.698Z,5.20
2023-02-02T14:10:45.194Z,5.20
2023-02-02T14:14:09.254Z,5.20
2023-02-02T14:17:56.001Z,5.30
2023-02-02T14:20:58.871Z,5.10
2023-02-02T14:24:03.401Z,5.20
2023-02-02T14:27:55.911Z,5.30
2023-02-02T14:31:37.654Z,5.30
2023-02-02T14:34:41.677Z,5.50
2023-02-02T14:37:51.971Z,5.60
2023-02-02T14:40:59.589Z,5.70
2023-02-02T14:44:06.235Z,5.70
2023-02-02T14:47:42.235Z,5.60
2023-02-02T14:50:49.610Z,5.40
2023-02-02T14:53:55.866Z,5.40
2023-02-02T14:57:01.685Z,5.30
2023-02-02T15:00:07.884Z,5.30
2023-02-02T15:03:46.902Z,5.30
2023-02-02T15:06:51.147Z,5.20
2023-02-02T15:09:56.398Z,5.20
2023-02-02T15:13:06.557Z,5.30
2023-02-02T15:16:20.773Z,5.40
2023-02-02T15:19:31.263Z,5.40
2023-02-02T15:22:38.554Z,5.30
2023-02-02T15:25:45.097Z,5.50
2023-02-02T15:28:53.840Z,5.30
2023-02-02T15:31:58.860Z,5.40
2023-02-02T15:35:04.724Z,5.30
2023-02-02T15:38:13.652Z,5.20
2023-02-02T15:41:21.108Z,5.30
2023-02-02T15:44:29.833Z,5.30
2023-02-02T15:47:36.849Z,5.40
2023-02-02T15:50:46.296Z,5.50
2023-02-02T15:53:51.714Z,5.50
2023-02-02T15:56:56.180Z,5.30
2023-02-02T16:00:00.563Z,5.30
2023-02-02T16:03:10.690Z,5.30
2023-02-02T16:06:13.739Z,5.30
2023-02-02T16:09:24.420Z,5.40
2023-02-02T16:12:27.310Z,5.30
2023-02-02T16:15:31.832Z,5.20
2023-02-02T16:18:37.916Z,5.30
2023-02-02T16:21:46.680Z,5.30
2023-02-02T16:24:52.633Z,5.40
2023-02-02T16:27:56.135Z,5.30
2023-02-02T16:31:01.574Z,5.30
2023-02-02T16:34:05.848Z,5.30
2023-02-02T16:37:14.707Z,5.40
2023-02-02T16:40:22.543Z,5.30
2023-02-02T16:43:29.811Z,5.10
2023-02-02T16:46:44.160Z,5.30
2023-02-02T16:49:48.422Z,5.30
2023-02-02T16:52:54.170Z,5.20
2023-02-02T16:55:58.047Z,5.30
2023-02-02T16:59:05.683Z,5.40
2023-02-02T17:02:22.105Z,5.40
2023-02-02T17:05:29.669Z,5.30
2023-02-02T17:08:34.330Z,5.40
2023-02-02T17:11:37.216Z,5.50
2023-02-02T17:14:52.754Z,5.40
2023-02-02T17:17:55.839Z,5.50
2023-02-02T17:21:04.326Z,5.40
2023-02-02T17:24:07.747Z,5.40
2023-02-02T17:27:14.230Z,5.50
2023-02-02T17:30:19.407Z,5.30
2023-02-02T17:33:22.356Z,5.50
2023-02-02T17:36:26.548Z,5.60
2023-02-02T17:39:29.388Z,5.40
2023-02-02T17:42:36.841Z,5.40
2023-02-02T17:45:40.214Z,5.50
2023-02-02T17:48:43.212Z,5.50
2023-02-02T17:51:47.436Z,5.60
2023-02-02T17:54:50.274Z,5.60
2023-02-02T17:57:54.232Z,5.50
2023-02-02T18:00:59.044Z,5.50
2023-02-02T18:04:02.249Z,5.40
2023-02-02T18:07:07.545Z,5.60
2023-02-02T18:10:12.718Z,5.70
2023-02-02T18:13:16.580Z,5.60
2023-02-02T18:16:19.841Z,5.60
2023-02-02T18:19:22.788Z,5.60
2023-02-02T18:22:27.056Z,5.50
2023-02-02T18:25:29.914Z,5.60
2023-02-02T18:28:32.915Z,5.40
2023-02-02T18:31:36.138Z,5.50
2023-02-02T18:34:39.056Z,5.40
2023-02-02T18:37:43.279Z,5.50
2023-02-02T18:40:46.125Z,5.30
2023-02-02T18:43:49.061Z,5.40
2023-02-02T18:46:52.340Z,5.50
2023-02-02T18:49:55.318Z,5.50
2023-02-02T18:52:59.802Z,5.60
2023-02-02T18:56:05.967Z,5.50
2023-02-02T18:59:08.956Z,5.40
2023-02-02T19:02:14.599Z,5.30
2023-02-02T19:05:35.016Z,5.30
2023-02-02T19:08:39.312Z,5.50
2023-02-02T19:11:44.538Z,5.30
2023-02-02T19:14:47.385Z,5.30
2023-02-02T19:17:52.705Z,5.40
2023-02-02T19:20:55.573Z,5.40
2023-02-02T19:24:00.842Z,5.50
2023-02-02T19:27:03.901Z,5.30
2023-02-02T19:30:16.706Z,5.30
2023-02-02T19:33:20.375Z,5.40
2023-02-02T19:36:24.296Z,5.40
2023-02-02T19:39:31.687Z,5.30
2023-02-02T19:42:35.014Z,5.40
2023-02-02T19:45:39.623Z,5.50
2023-02-02T19:48:42.507Z,5.10
2023-02-02T19:51:47.371Z,5.30
2023-02-02T19:54:53.148Z,5.40
2023-02-02T19:58:02.762Z,5.50
2023-02-02T20:01:19.646Z,5.40
2023-02-02T20:04:23.289Z,5.40
2023-02-02T20:07:26.175Z,5.60
2023-02-02T20:10:38.227Z,5.60
2023-02-02T20:13:46.565Z,5.60
2023-02-02T20:16:52.785Z,5.30
2023-02-02T20:19:55.797Z,5.40
2023-02-02T20:22:58.955Z,5.40
2023-02-02T20:26:05.158Z,5.50
2023-02-02T20:29:18.031Z,5.60
2023-02-02T20:32:26.262Z,5.70
2023-02-02T20:35:36.493Z,5.70
2023-02-02T20:38:39.847Z,5.80
2023-02-02T20:41:44.743Z,5.60
2023-02-02T20:44:47.932Z,5.60
2023-02-02T20:47:51.053Z,5.70
2023-02-02T20:50:53.985Z,5.60
2023-02-02T20:53:57.766Z,5.80
2023-02-02T20:57:02.432Z,5.70
2023-02-02T21:00:06.348Z,5.60
2023-02-02T21:03:09.300Z,5.60
2023-02-02T21:06:12.428Z,5.50
2023-02-02T21:09:15.887Z,5.60
2023-02-02T21:12:22.316Z,5.60
2023-02-02T21:15:26.288Z,5.80
2023-02-02T21:18:29.492Z,5.70
2023-02-02T21:21:32.395Z,5.60
2023-02-02T21:24:35.700Z,5.60
2023-02-02T21:27:41.171Z,5.50
2023-02-02T21:30:44.194Z,5.70
2023-02-02T21:33:49.858Z,5.60
2023-02-02T21:36:57.083Z,5.40
2023-02-02T21:40:00.865Z,5.50
2023-02-02T21:43:14.726Z,5.70
2023-02-02T21:46:20.163Z,5.70
2023-02-02T21:49:25.338Z,5.60
2023-02-02T21:52:34.150Z,5.60
2023-02-02T21:55:39.470Z,5.70
2023-02-02T21:58:45.309Z,5.70
2023-02-02T22:01:49.420Z,5.80
2023-02-02T22:04:52.857Z,5.70
2023-02-02T22:07:59.431Z,5.70
2023-02-02T22:11:02.404Z,5.70
2023-02-02T22:14:19.942Z,5.70
2023-02-02T22:17:24.457Z,5.70
2023-02-02T22:20:34.601Z,5.80
2023-02-02T22:23:39.630Z,5.80
2023-02-02T22:26:42.869Z,5.90
2023-02-02T22:29:47.242Z,5.70
2023-02-02T22:32:50.110Z,5.70
2023-02-02T22:35:53.385Z,5.80
2023-02-02T22:38:56.235Z,5.90
2023-02-02T22:41:59.242Z,6.00
2023-02-02T22:45:03.946Z,6.00
2023-02-02T22:48:07.091Z,5.80
2023-02-02T22:51:10.225Z,6.00
2023-02-02T22:54:13.102Z,5.90
2023-02-02T22:57:16.072Z,5.70
2023-02-02T23:00:22.290Z,5.60
2023-02-02T23:03:25.297Z,5.70
2023-02-02T23:06:28.206Z,5.80
2023-02-02T23:09:31.172Z,5.90
2023-02-02T23:12:34.257Z,5.80
2023-02-02T23:15:38.790Z,5.90
2023-02-02T23:18:41.756Z,5.90
2023-02-02T23:21:44.659Z,5.90
2023-02-02T23:24:48.424Z,6.10
2023-02-02T23:27:51.518Z,6.00
2023-02-02T23:30:59.105Z,6.00
2023-02-02T23:34:02.104Z,5.90
2023-02-02T23:37:05.021Z,6.00
2023-02-02T23:40:09.567Z,5.90
2023-02-02T23:43:12.488Z,5.90
2023-02-02T23:46:16.946Z,5.90
2023-02-02T23:49:20.508Z,5.90
2023-02-02T23:52:23.652Z,6.00
2023-02-02T23:55:26.699Z,6.00
2023-02-02T23:58:29.528Z,6.00
